createdAt,value
2023-08-05T00:00:51.974Z,5.30
2023-08-05T00:03:28.626Z,5.70
2023-08-05T00:05:57.347Z,7.60
2023-08-05T00:08:25.983Z,8.80
2023-08-05T00:10:54.854Z,4.10
2023-08-05T00:13:23.366Z,7.60
2023-08-05T00:15:52.506Z,4.60
2023-08-05T00:18:21.162Z,6.30
2023-08-05T00:20:50.976Z,6.90
2023-08-05T00:23:20.697Z,8.00
2023-08-05T00:25:49.230Z,4.50
2023-08-05T00:28:17.776Z,4.40
2023-08-05T00:30:46.305Z,4.60
2023-08-05T00:33:14.873Z,5.20
2023-08-05T00:35:43.405Z,6.60
2023-08-05T00:38:11.946Z,5.20
2023-08-05T00:40:42.369Z,5.00
2023-08-05T00:43:10.903Z,5.60
2023-08-05T00:45:39.574Z,5.20
2023-08-05T00:48:08.386Z,6.50
2023-08-05T00:50:37.701Z,5.90
2023-08-05T00:53:06.713Z,6.20
2023-08-05T00:55:35.278Z,7.80
2023-08-05T00:58:04.420Z,5.20
2023-08-05T01:00:32.981Z,6.30
2023-08-05T01:03:01.823Z,5.80
2023-08-05T01:05:32.480Z,7.00
2023-08-05T01:08:01.614Z,5.40
2023-08-05T01:10:30.597Z,4.70
2023-08-05T01:12:59.153Z,6.30
2023-08-05T01:15:27.944Z,7.10
2023-08-05T01:17:58.220Z,7.60
2023-08-05T01:20:45.124Z,6.10
2023-08-05T01:23:40.905Z,7.90
2023-08-05T01:26:10.980Z,7.80
2023-08-05T01:28:39.894Z,7.80
2023-08-05T01:31:10.886Z,6.80
2023-08-05T01:33:39.873Z,6.00
2023-08-05T01:36:08.377Z,5.90
2023-08-05T01:38:36.921Z,7.30
2023-08-05T01:41:05.753Z,6.00
2023-08-05T01:43:35.130Z,5.20
2023-08-05T01:46:03.903Z,5.50
2023-08-05T01:48:32.439Z,5.30
2023-08-05T01:51:01.122Z,5.60
2023-08-05T01:53:29.635Z,6.70
2023-08-05T01:55:58.278Z,6.20
2023-08-05T01:58:26.827Z,7.00
2023-08-05T02:00:55.657Z,6.70
2023-08-05T02:03:25.198Z,5.20
2023-08-05T02:05:54.085Z,6.40
2023-08-05T02:08:22.747Z,5.30
2023-08-05T02:10:51.235Z,5.00
2023-08-05T02:13:19.877Z,5.10
2023-08-05T02:15:48.415Z,6.20
2023-08-05T02:18:16.980Z,7.50
2023-08-05T02:20:45.522Z,7.90
2023-08-05T02:23:14.029Z,6.30
2023-08-05T02:25:42.610Z,6.20
2023-08-05T02:28:11.188Z,6.60
2023-08-05T02:30:39.861Z,6.20
2023-08-05T02:33:08.569Z,5.90
2023-08-05T02:35:37.160Z,8.40
2023-08-05T02:38:05.743Z,6.50
2023-08-05T02:40:34.867Z,8.30
2023-08-05T02:43:03.512Z,6.20
2023-08-05T02:45:32.058Z,9.60
2023-08-05T02:48:00.694Z,7.60
2023-08-05T02:50:29.340Z,7.20
2023-08-05T02:52:57.912Z,8.10
2023-08-05T02:55:26.443Z,5.20
2023-08-05T02:57:55.033Z,5.90
2023-08-05T03:00:23.625Z,7.80
2023-08-05T03:02:52.208Z,6.90
2023-08-05T03:05:20.981Z,9.40
2023-08-05T03:07:49.864Z,8.70
2023-08-05T03:10:18.742Z,6.60
2023-08-05T03:12:47.825Z,7.40
2023-08-05T03:15:16.620Z,7.20
2023-08-05T03:17:45.363Z,7.50
2023-08-05T03:20:28.187Z,6.90
2023-08-05T03:23:00.179Z,5.60
2023-08-05T03:25:29.388Z,6.50
2023-08-05T03:28:00.983Z,6.70
2023-08-05T03:30:30.263Z,7.30
2023-08-05T03:32:59.187Z,7.60
2023-08-05T03:35:29.751Z,8.50
2023-08-05T03:37:59.112Z,6.70
2023-08-05T03:40:27.830Z,7.80
2023-08-05T03:42:56.385Z,9.00
2023-08-05T03:45:24.977Z,8.00
2023-08-05T03:47:55.228Z,7.60
2023-08-05T03:50:24.736Z,7.70
2023-08-05T03:52:54.690Z,7.30
2023-08-05T03:55:23.286Z,7.50
2023-08-05T03:57:52.969Z,7.50
2023-08-05T04:00:21.557Z,8.90
2023-08-05T04:02:50.105Z,8.30
2023-08-05T04:05:19.014Z,7.20
2023-08-05T04:07:48.225Z,7.60
2023-08-05T04:10:20.906Z,6.90
2023-08-05T04:12:49.781Z,7.60
2023-08-05T04:15:20.055Z,8.80
2023-08-05T04:17:49.418Z,10.50
2023-08-05T04:20:19.308Z,6.30
2023-08-05T04:22:50.428Z,6.90
2023-08-05T04:25:19.207Z,7.80
2023-08-05T04:27:47.846Z,7.40
2023-08-05T04:30:16.412Z,6.00
2023-08-05T04:32:45.052Z,6.90
2023-08-05T04:35:13.624Z,8.30
2023-08-05T04:37:42.147Z,6.50
2023-08-05T04:40:12.198Z,6.70
2023-08-05T04:42:40.748Z,7.20
2023-08-05T04:45:10.519Z,7.60
2023-08-05T04:47:39.156Z,7.00
2023-08-05T04:50:08.307Z,7.90
2023-08-05T04:52:36.872Z,6.60
2023-08-05T04:55:13.009Z,6.60
2023-08-05T04:57:41.655Z,8.60
2023-08-05T05:00:11.385Z,7.20
2023-08-05T05:02:39.988Z,7.00
2023-08-05T05:05:09.047Z,9.80
2023-08-05T05:07:37.626Z,6.90
2023-08-05T05:10:06.866Z,6.80
2023-08-05T05:12:35.432Z,8.60
2023-08-05T05:15:04.467Z,6.20
2023-08-05T05:17:37.166Z,7.80
2023-08-05T05:20:06.731Z,6.80
2023-08-05T05:22:35.266Z,6.60
2023-08-05T05:25:06.518Z,9.50
2023-08-05T05:27:36.251Z,8.40
2023-08-05T05:30:05.326Z,8.90
2023-08-05T05:32:33.935Z,8.10
2023-08-05T05:35:02.525Z,6.70
2023-08-05T05:37:31.160Z,8.10
2023-08-05T05:39:59.701Z,6.20
2023-08-05T05:42:29.614Z,7.70
2023-08-05T05:44:58.167Z,7.80
2023-08-05T05:47:26.782Z,7.30
2023-08-05T05:49:55.396Z,6.20
2023-08-05T05:52:23.970Z,6.30
2023-08-05T05:54:52.561Z,5.70
2023-08-05T05:57:23.765Z,6.30
2023-08-05T05:59:52.275Z,7.10
2023-08-05T06:02:21.072Z,6.60
2023-08-05T06:04:49.845Z,5.60
2023-08-05T06:07:18.384Z,5.30
2023-08-05T06:09:46.873Z,4.80
2023-08-05T06:12:19.204Z,6.00
2023-08-05T06:14:47.766Z,5.00
2023-08-05T06:17:16.359Z,6.90
2023-08-05T06:19:45.212Z,5.90
2023-08-05T06:22:14.145Z,6.20
2023-08-05T06:24:42.633Z,5.50
2023-08-05T06:27:11.264Z,5.30
2023-08-05T06:29:39.849Z,5.80
2023-08-05T06:32:09.098Z,5.90
2023-08-05T06:34:37.606Z,7.80
2023-08-05T06:37:06.462Z,5.50
2023-08-05T06:39:35.106Z,6.10
2023-08-05T06:42:04.149Z,5.50
2023-08-05T06:44:38.601Z,5.90
2023-08-05T06:47:07.283Z,5.60
2023-08-05T06:49:36.619Z,5.10
2023-08-05T06:52:06.021Z,4.90
2023-08-05T06:54:34.652Z,6.80
2023-08-05T06:57:03.159Z,4.50
2023-08-05T06:59:31.729Z,5.00
2023-08-05T07:02:01.861Z,5.00
2023-08-05T07:04:30.580Z,4.90
2023-08-05T07:06:59.665Z,5.10
2023-08-05T07:09:28.202Z,6.00
2023-08-05T07:11:56.720Z,5.30
2023-08-05T07:14:26.333Z,6.10
2023-08-05T07:16:54.844Z,5.20
2023-08-05T07:19:23.353Z,5.30
2023-08-05T07:21:52.929Z,5.40
2023-08-05T07:24:22.147Z,8.80
2023-08-05T07:26:50.730Z,4.90
2023-08-05T07:29:19.239Z,5.60
2023-08-05T07:31:47.797Z,4.60
2023-08-05T07:34:17.270Z,6.80
2023-08-05T07:36:46.211Z,5.80
2023-08-05T07:39:14.802Z,5.60
2023-08-05T07:41:43.516Z,5.40
2023-08-05T07:44:13.655Z,5.20
2023-08-05T07:46:43.056Z,6.40
2023-08-05T07:49:13.316Z,7.00
2023-08-05T07:51:41.806Z,5.70
2023-08-05T07:54:10.354Z,4.50
2023-08-05T07:56:40.661Z,5.70
2023-08-05T07:59:09.366Z,5.30
2023-08-05T08:01:40.269Z,5.90
2023-08-05T08:04:10.202Z,7.10
2023-08-05T08:06:38.852Z,6.30
2023-08-05T08:09:07.393Z,5.00
2023-08-05T08:11:35.972Z,4.80
2023-08-05T08:14:05.879Z,5.40
2023-08-05T08:16:34.414Z,5.40
2023-08-05T08:19:05.934Z,6.10
2023-08-05T08:21:34.486Z,4.60
2023-08-05T08:24:03.028Z,4.50
2023-08-05T08:26:31.492Z,4.70
2023-08-05T08:29:00.108Z,4.50
2023-08-05T08:31:31.481Z,3.70
2023-08-05T08:34:00.052Z,6.20
2023-08-05T08:36:28.564Z,4.90
2023-08-05T08:38:57.185Z,4.80
2023-08-05T08:41:27.283Z,4.40
2023-08-05T08:43:57.252Z,4.30
2023-08-05T08:46:26.345Z,4.50
2023-08-05T08:48:56.022Z,6.60
2023-08-05T08:51:24.943Z,3.30
2023-08-05T08:53:53.535Z,5.40
2023-08-05T08:56:22.054Z,4.80
2023-08-05T08:58:50.599Z,6.60
2023-08-05T09:01:20.237Z,7.30
2023-08-05T09:03:53.481Z,4.50
2023-08-05T09:06:27.257Z,4.00
2023-08-05T09:08:56.321Z,4.10
2023-08-05T09:11:25.039Z,5.20
2023-08-05T09:13:54.822Z,4.40
2023-08-05T09:16:24.689Z,4.50
2023-08-05T09:18:56.774Z,5.10
2023-08-05T09:21:29.510Z,3.60
2023-08-05T09:23:58.763Z,4.40
2023-08-05T09:26:31.972Z,4.50
2023-08-05T09:29:01.313Z,3.70
2023-08-05T09:31:30.460Z,5.00
2023-08-05T09:33:59.067Z,6.40
2023-08-05T09:36:32.318Z,4.40
2023-08-05T09:39:11.748Z,3.70
2023-08-05T09:41:43.759Z,4.00
2023-08-05T09:44:13.281Z,5.70
2023-08-05T09:46:49.192Z,3.30
2023-08-05T09:49:19.875Z,4.20
2023-08-05T09:51:50.322Z,6.60
2023-08-05T09:54:29.474Z,6.40
2023-08-05T09:57:00.770Z,3.80
2023-08-05T09:59:29.718Z,3.70
2023-08-05T10:01:58.343Z,4.70
2023-08-05T10:04:29.257Z,4.30
2023-08-05T10:06:58.580Z,4.40
2023-08-05T10:09:27.895Z,5.60
2023-08-05T10:11:56.824Z,4.70
2023-08-05T10:14:29.307Z,3.40
2023-08-05T10:16:58.309Z,6.90
2023-08-05T10:19:32.276Z,4.00
2023-08-05T10:22:13.180Z,5.10
2023-08-05T10:25:01.765Z,6.80
2023-08-05T10:27:46.232Z,3.70
2023-08-05T10:30:18.295Z,4.90
2023-08-05T10:32:57.811Z,4.10
2023-08-05T10:35:31.664Z,5.10
2023-08-05T10:38:17.789Z,4.20
2023-08-05T10:40:57.631Z,4.30
2023-08-05T10:43:32.738Z,3.60
2023-08-05T10:46:07.642Z,3.90
2023-08-05T10:48:43.756Z,5.80
2023-08-05T10:51:17.596Z,3.10
2023-08-05T10:54:07.058Z,4.40
2023-08-05T10:56:38.939Z,2.90
2023-08-05T10:59:07.826Z,3.20
2023-08-05T11:02:00.111Z,5.40
2023-08-05T11:04:30.742Z,4.20
2023-08-05T11:07:02.433Z,4.60
2023-08-05T11:09:35.272Z,3.50
2023-08-05T11:12:04.121Z,4.50
2023-08-05T11:14:33.727Z,3.00
2023-08-05T11:17:08.734Z,5.30
2023-08-05T11:19:58.013Z,3.80
2023-08-05T11:22:28.881Z,3.10
2023-08-05T11:25:02.546Z,2.90
2023-08-05T11:27:37.504Z,4.20
2023-08-05T11:30:18.308Z,3.00
2023-08-05T11:33:00.100Z,3.10
2023-08-05T11:35:28.767Z,2.90
2023-08-05T11:37:58.276Z,3.60
2023-08-05T11:40:27.106Z,2.70
2023-08-05T11:42:57.158Z,3.80
2023-08-05T11:45:25.865Z,7.20
2023-08-05T11:47:54.518Z,3.50
2023-08-05T11:50:37.280Z,10.90
2023-08-05T11:53:08.738Z,2.90
2023-08-05T11:55:38.424Z,4.00
2023-08-05T11:58:07.990Z,5.20
2023-08-05T12:00:36.727Z,5.20
2023-08-05T12:03:06.505Z,2.50
2023-08-05T12:05:35.265Z,3.10
2023-08-05T12:08:04.218Z,2.90
2023-08-05T12:10:32.918Z,3.10
2023-08-05T12:13:06.267Z,5.30
2023-08-05T12:15:34.862Z,4.00
2023-08-05T12:18:06.428Z,3.50
2023-08-05T12:20:37.564Z,3.00
2023-08-05T12:23:08.989Z,4.10
2023-08-05T12:25:37.547Z,2.60
2023-08-05T12:28:06.813Z,3.50
2023-08-05T12:30:35.644Z,3.40
2023-08-05T12:33:06.642Z,4.80
2023-08-05T12:35:36.752Z,3.20
2023-08-05T12:38:05.258Z,4.40
2023-08-05T12:40:33.947Z,4.60
2023-08-05T12:43:02.457Z,4.30
2023-08-05T12:45:31.019Z,2.80
2023-08-05T12:47:59.668Z,3.20
2023-08-05T12:50:28.401Z,2.70
2023-08-05T12:52:56.989Z,5.50
2023-08-05T12:55:25.512Z,3.60
2023-08-05T12:57:54.022Z,2.40
2023-08-05T13:00:22.679Z,3.40
2023-08-05T13:02:51.259Z,2.50
2023-08-05T13:05:19.853Z,2.40
2023-08-05T13:07:48.349Z,4.20
2023-08-05T13:10:16.824Z,2.90
2023-08-05T13:12:45.306Z,2.90
2023-08-05T13:15:13.902Z,2.00
2023-08-05T13:17:42.533Z,3.30
2023-08-05T13:20:11.466Z,1.80
2023-08-05T13:22:40.102Z,2.50
2023-08-05T13:25:09.025Z,2.90
2023-08-05T13:27:37.597Z,4.30
2023-08-05T13:30:07.243Z,3.70
2023-08-05T13:32:35.752Z,3.50
2023-08-05T13:35:04.622Z,3.80
2023-08-05T13:37:35.288Z,2.50
2023-08-05T13:40:04.745Z,4.30
2023-08-05T13:42:33.321Z,2.50
2023-08-05T13:45:01.852Z,4.90
2023-08-05T13:47:30.503Z,3.40
2023-08-05T13:49:59.032Z,2.30
2023-08-05T13:52:27.551Z,3.50
2023-08-05T13:54:57.149Z,3.70
2023-08-05T13:57:25.737Z,3.50
2023-08-05T13:59:54.481Z,2.70
2023-08-05T14:02:23.043Z,2.40
2023-08-05T14:04:51.665Z,3.30
2023-08-05T14:07:20.176Z,3.40
2023-08-05T14:09:48.740Z,3.50
2023-08-05T14:12:17.276Z,2.90
2023-08-05T14:14:45.880Z,3.20
2023-08-05T14:17:14.326Z,2.80
2023-08-05T14:19:42.951Z,4.10
2023-08-05T14:22:11.984Z,3.00
2023-08-05T14:24:40.818Z,4.70
2023-08-05T14:27:09.296Z,3.60
2023-08-05T14:29:37.810Z,3.80
2023-08-05T14:32:07.063Z,7.80
2023-08-05T14:34:35.565Z,3.10
2023-08-05T14:37:04.279Z,3.60
2023-08-05T14:39:33.676Z,4.50
2023-08-05T14:42:02.213Z,5.10
2023-08-05T14:44:30.924Z,4.00
2023-08-05T14:46:59.481Z,3.50
2023-08-05T14:49:28.019Z,4.80
2023-08-05T14:51:56.551Z,4.50
2023-08-05T14:54:25.140Z,4.70
2023-08-05T14:56:54.043Z,3.50
2023-08-05T14:59:22.544Z,3.40
2023-08-05T15:01:51.370Z,3.80
2023-08-05T15:04:20.063Z,5.60
2023-08-05T15:06:48.602Z,4.20
2023-08-05T15:09:17.378Z,4.70
2023-08-05T15:11:45.933Z,3.00
2023-08-05T15:14:16.254Z,3.50
2023-08-05T15:16:44.836Z,3.80
2023-08-05T15:19:13.302Z,4.00
2023-08-05T15:21:41.947Z,3.40
2023-08-05T15:24:10.620Z,3.90
2023-08-05T15:26:39.202Z,3.80
2023-08-05T15:29:07.771Z,3.40
2023-08-05T15:31:36.380Z,2.80
2023-08-05T15:34:04.941Z,3.90
2023-08-05T15:36:33.451Z,3.30
2023-08-05T15:39:01.994Z,3.00
2023-08-05T15:41:31.598Z,10.90
2023-08-05T15:44:00.181Z,4.40
2023-08-05T15:46:31.782Z,4.70
2023-08-05T15:49:00.297Z,5.80
2023-08-05T15:51:29.177Z,3.50
2023-08-05T15:53:57.748Z,3.40
2023-08-05T15:56:28.348Z,4.10
2023-08-05T15:58:56.894Z,3.30
2023-08-05T16:01:25.724Z,5.80
2023-08-05T16:03:54.794Z,3.70
2023-08-05T16:06:23.338Z,3.60
2023-08-05T16:08:51.848Z,3.30
2023-08-05T16:11:21.487Z,3.00
2023-08-05T16:13:49.970Z,2.90
2023-08-05T16:16:19.507Z,3.70
2023-08-05T16:18:48.174Z,2.80
2023-08-05T16:21:22.616Z,4.10
2023-08-05T16:23:58.715Z,5.90
2023-08-05T16:26:27.538Z,8.50
2023-08-05T16:28:56.085Z,3.20
2023-08-05T16:31:25.430Z,3.30
2023-08-05T16:33:54.206Z,3.70
2023-08-05T16:36:23.811Z,4.40
2023-08-05T16:38:52.376Z,3.40
2023-08-05T16:41:22.789Z,3.90
2023-08-05T16:43:52.202Z,5.10
2023-08-05T16:46:22.595Z,4.10
2023-08-05T16:48:54.906Z,4.20
2023-08-05T16:51:23.398Z,4.10
2023-08-05T16:53:51.945Z,5.50
2023-08-05T16:56:20.558Z,3.10
2023-08-05T16:58:49.396Z,3.30
2023-08-05T17:01:22.072Z,4.20
2023-08-05T17:03:50.607Z,4.00
2023-08-05T17:06:19.150Z,3.80
2023-08-05T17:08:47.713Z,4.50
2023-08-05T17:11:16.293Z,2.60
2023-08-05T17:13:44.842Z,3.80
2023-08-05T17:16:13.515Z,4.20
2023-08-05T17:18:42.104Z,4.00
2023-08-05T17:21:10.703Z,5.70
2023-08-05T17:23:39.250Z,4.60
2023-08-05T17:26:07.775Z,2.90
2023-08-05T17:28:36.305Z,3.50
2023-08-05T17:31:06.604Z,2.60
2023-08-05T17:33:35.211Z,2.80
2023-08-05T17:36:03.990Z,3.10
2023-08-05T17:38:32.738Z,6.50
2023-08-05T17:41:01.269Z,3.70
2023-08-05T17:43:29.737Z,3.50
2023-08-05T17:46:00.006Z,4.10
2023-08-05T17:48:28.614Z,5.30
2023-08-05T17:50:59.344Z,3.50
2023-08-05T17:53:27.983Z,3.40
2023-08-05T17:55:56.523Z,4.90
2023-08-05T17:58:25.303Z,4.50
2023-08-05T18:00:54.284Z,5.30
2023-08-05T18:03:22.917Z,3.30
2023-08-05T18:05:59.004Z,3.60
2023-08-05T18:08:32.851Z,3.70
2023-08-05T18:11:01.374Z,7.10
2023-08-05T18:13:29.852Z,3.70
2023-08-05T18:15:58.388Z,4.00
2023-08-05T18:18:26.904Z,7.80
2023-08-05T18:20:55.521Z,3.90
2023-08-05T18:23:24.119Z,4.10
2023-08-05T18:25:52.683Z,3.20
2023-08-05T18:28:21.519Z,2.90
2023-08-05T18:30:50.012Z,4.90
2023-08-05T18:33:18.612Z,6.50
2023-08-05T18:35:49.477Z,3.70
2023-08-05T18:38:18.535Z,3.90
2023-08-05T18:40:47.052Z,4.50
2023-08-05T18:43:15.627Z,6.10
2023-08-05T18:45:44.194Z,4.70
2023-08-05T18:48:12.750Z,5.70
2023-08-05T18:50:41.244Z,3.40
2023-08-05T18:53:10.560Z,3.50
2023-08-05T18:55:39.147Z,5.00
2023-08-05T18:58:07.677Z,5.70
2023-08-05T19:00:41.642Z,3.90
2023-08-05T19:03:10.810Z,4.20
2023-08-05T19:05:39.639Z,5.20
2023-08-05T19:08:08.408Z,7.50
2023-08-05T19:10:43.287Z,5.30
2023-08-05T19:13:12.031Z,4.50
2023-08-05T19:15:40.512Z,5.30
2023-08-05T19:18:12.225Z,4.20
2023-08-05T19:20:40.995Z,5.50
2023-08-05T19:23:11.428Z,6.10
2023-08-05T19:25:39.977Z,4.90
2023-08-05T19:28:08.658Z,4.80
2023-08-05T19:30:38.199Z,7.60
2023-08-05T19:33:06.855Z,7.80
2023-08-05T19:35:35.410Z,6.00
2023-08-05T19:38:03.981Z,4.50
2023-08-05T19:40:32.462Z,6.10
2023-08-05T19:43:03.046Z,6.70
2023-08-05T19:45:31.750Z,5.20
2023-08-05T19:48:00.420Z,4.30
2023-08-05T19:50:29.005Z,4.60
2023-08-05T19:52:57.538Z,4.70
2023-08-05T19:55:30.372Z,5.10
2023-08-05T19:57:58.873Z,8.90
2023-08-05T20:00:27.987Z,5.20
2023-08-05T20:02:57.477Z,4.30
2023-08-05T20:05:26.173Z,4.10
2023-08-05T20:07:54.738Z,6.50
2023-08-05T20:10:23.358Z,5.70
2023-08-05T20:12:51.829Z,4.30
2023-08-05T20:15:20.303Z,5.20
2023-08-05T20:17:48.859Z,6.00
2023-08-05T20:20:17.686Z,5.10
2023-08-05T20:22:46.253Z,4.20
2023-08-05T20:25:14.977Z,5.90
2023-08-05T20:27:43.608Z,7.40
2023-08-05T20:30:12.298Z,6.80
2023-08-05T20:32:41.470Z,7.10
2023-08-05T20:35:10.924Z,5.10
2023-08-05T20:37:39.429Z,4.40
2023-08-05T20:40:09.651Z,7.10
2023-08-05T20:42:38.286Z,7.80
2023-08-05T20:45:08.739Z,5.90
2023-08-05T20:47:37.341Z,5.90
2023-08-05T20:50:07.319Z,5.70
2023-08-05T20:52:36.143Z,6.20
2023-08-05T20:55:05.422Z,6.50
2023-08-05T20:57:34.367Z,6.60
2023-08-05T21:00:03.891Z,4.90
2023-08-05T21:02:32.487Z,5.10
2023-08-05T21:05:03.246Z,6.10
2023-08-05T21:07:32.382Z,8.60
2023-08-05T21:10:00.916Z,5.90
2023-08-05T21:12:29.440Z,7.60
2023-08-05T21:14:58.005Z,7.00
2023-08-05T21:17:26.618Z,7.80
2023-08-05T21:19:55.276Z,5.40
2023-08-05T21:22:23.764Z,5.90
2023-08-05T21:24:52.469Z,8.50
2023-08-05T21:27:21.131Z,8.20
2023-08-05T21:29:49.824Z,6.50
2023-08-05T21:32:19.852Z,5.70
2023-08-05T21:34:48.395Z,7.40
2023-08-05T21:37:16.918Z,8.40
2023-08-05T21:39:47.172Z,7.50
2023-08-05T21:42:15.740Z,7.10
2023-08-05T21:44:44.491Z,7.80
2023-08-05T21:47:13.165Z,7.50
2023-08-05T21:49:41.889Z,6.10
2023-08-05T21:52:10.670Z,8.40
2023-08-05T21:54:39.224Z,7.00
2023-08-05T21:57:08.094Z,6.10
2023-08-05T21:59:36.656Z,8.40
2023-08-05T22:02:05.808Z,6.50
2023-08-05T22:04:34.743Z,8.20
2023-08-05T22:07:03.327Z,5.80
2023-08-05T22:09:31.868Z,5.60
2023-08-05T22:12:05.144Z,6.30
2023-08-05T22:14:33.686Z,8.30
2023-08-05T22:17:03.174Z,6.90
2023-08-05T22:19:31.759Z,5.40
2023-08-05T22:22:00.285Z,8.00
2023-08-05T22:24:41.140Z,7.20
2023-08-05T22:27:10.927Z,5.30
2023-08-05T22:29:39.515Z,8.80
2023-08-05T22:32:08.580Z,5.10
2023-08-05T22:34:37.318Z,5.60
2023-08-05T22:37:06.448Z,9.10
2023-08-05T22:40:03.267Z,10.40
2023-08-05T22:42:31.798Z,8.10
2023-08-05T22:45:02.276Z,7.80
2023-08-05T22:47:30.694Z,10.20
2023-08-05T22:49:59.486Z,8.60
2023-08-05T22:52:27.937Z,5.40
2023-08-05T22:54:56.243Z,8.80
2023-08-05T22:57:24.683Z,10.70
2023-08-05T22:59:53.337Z,7.80
2023-08-05T23:02:21.889Z,7.10
2023-08-05T23:04:52.124Z,7.90
2023-08-05T23:07:20.766Z,6.90
2023-08-05T23:09:52.322Z,6.10
2023-08-05T23:12:23.844Z,7.80
2023-08-05T23:14:52.870Z,6.70
2023-08-05T23:17:21.425Z,9.00
2023-08-05T23:19:50.006Z,7.80
2023-08-05T23:22:18.981Z,9.90
2023-08-05T23:24:47.876Z,10.50
2023-08-05T23:27:16.475Z,7.20
2023-08-05T23:29:44.963Z,7.70
2023-08-05T23:32:13.712Z,8.90
2023-08-05T23:34:42.266Z,7.20
2023-08-05T23:37:10.774Z,7.30
2023-08-05T23:39:39.324Z,7.70
2023-08-05T23:42:07.929Z,8.00
2023-08-05T23:44:36.583Z,12.60
2023-08-05T23:47:06.680Z,7.30
2023-08-05T23:49:35.596Z,7.00
2023-08-05T23:52:04.696Z,8.20
2023-08-05T23:54:33.479Z,8.50
2023-08-05T23:57:02.174Z,7.30
2023-08-05T23:59:30.796Z,6.80
